sensor_id;sensor_type;location;lat;lon;timestamp;pressure;altitude;pressure_sealevel;temperature
76381;BMP280;65202;52.520;10.528;2023-01-24T00:01:02;103502.72;;;1.95
76381;BMP280;65202;52.520;10.528;2023-01-24T00:03:30;103507.47;;;1.93
76381;BMP280;65202;52.520;10.528;2023-01-24T00:05:58;103498.63;;;1.88
76381;BMP280;65202;52.520;10.528;2023-01-24T00:08:25;103498.50;;;2.01
76381;BMP280;65202;52.520;10.528;2023-01-24T00:11:00;103496.66;;;1.86
76381;BMP280;65202;52.520;10.528;2023-01-24T00:13:29;103493.31;;;1.86
76381;BMP280;65202;52.520;10.528;2023-01-24T00:16:17;103491.25;;;1.95
76381;BMP280;65202;52.520;10.528;2023-01-24T00:18:47;103492.59;;;2.13
76381;BMP280;65202;52.520;10.528;2023-01-24T00:21:20;103491.72;;;1.86
76381;BMP280;65202;52.520;10.528;2023-01-24T00:23:52;103497.25;;;1.90
76381;BMP280;65202;52.520;10.528;2023-01-24T00:26:21;103489.91;;;2.11
76381;BMP280;65202;52.520;10.528;2023-01-24T00:28:50;103484.53;;;1.94
76381;BMP280;65202;52.520;10.528;2023-01-24T00:31:18;103478.84;;;1.88
76381;BMP280;65202;52.520;10.528;2023-01-24T00:33:45;103483.81;;;1.88
76381;BMP280;65202;52.520;10.528;2023-01-24T00:36:13;103485.22;;;1.87
76381;BMP280;65202;52.520;10.528;2023-01-24T00:38:40;103489.91;;;2.11
76381;BMP280;65202;52.520;10.528;2023-01-24T00:41:07;103481.03;;;1.99
76381;BMP280;65202;52.520;10.528;2023-01-24T00:43:35;103472.47;;;1.84
76381;BMP280;65202;52.520;10.528;2023-01-24T00:46:05;103482.03;;;1.87
76381;BMP280;65202;52.520;10.528;2023-01-24T00:48:33;103481.38;;;1.95
76381;BMP280;65202;52.520;10.528;2023-01-24T00:51:01;103475.63;;;2.16
76381;BMP280;65202;52.520;10.528;2023-01-24T00:53:28;103474.88;;;2.03
76381;BMP280;65202;52.520;10.528;2023-01-24T00:55:55;103473.69;;;2.13
76381;BMP280;65202;52.520;10.528;2023-01-24T00:58:23;103473.97;;;1.95
76381;BMP280;65202;52.520;10.528;2023-01-24T01:00:54;103477.19;;;2.08
76381;BMP280;65202;52.520;10.528;2023-01-24T01:03:22;103477.13;;;2.01
76381;BMP280;65202;52.520;10.528;2023-01-24T01:05:49;103482.59;;;1.99
76381;BMP280;65202;52.520;10.528;2023-01-24T01:08:16;103482.81;;;2.00
76381;BMP280;65202;52.520;10.528;2023-01-24T01:10:43;103488.44;;;1.99
76381;BMP280;65202;52.520;10.528;2023-01-24T01:13:12;103495.81;;;1.92
76381;BMP280;65202;52.520;10.528;2023-01-24T01:15:39;103493.63;;;2.08
76381;BMP280;65202;52.520;10.528;2023-01-24T01:18:07;103495.13;;;1.93
76381;BMP280;65202;52.520;10.528;2023-01-24T01:20:34;103489.53;;;2.08
76381;BMP280;65202;52.520;10.528;2023-01-24T01:23:01;103497.44;;;1.99
76381;BMP280;65202;52.520;10.528;2023-01-24T01:25:28;103494.44;;;1.94
76381;BMP280;65202;52.520;10.528;2023-01-24T01:27:55;103492.66;;;1.93
76381;BMP280;65202;52.520;10.528;2023-01-24T01:30:23;103494.78;;;1.97
76381;BMP280;65202;52.520;10.528;2023-01-24T01:32:50;103489.13;;;1.91
76381;BMP280;65202;52.520;10.528;2023-01-24T01:35:17;103486.00;;;2.06
76381;BMP280;65202;52.520;10.528;2023-01-24T01:37:45;103477.81;;;1.93
76381;BMP280;65202;52.520;10.528;2023-01-24T01:40:12;103480.28;;;1.87
76381;BMP280;65202;52.520;10.528;2023-01-24T01:42:48;103483.06;;;1.83
76381;BMP280;65202;52.520;10.528;2023-01-24T01:48:14;103488.28;;;2.05
76381;BMP280;65202;52.520;10.528;2023-01-24T01:50:56;103493.03;;;1.96
76381;BMP280;65202;52.520;10.528;2023-01-24T01:53:33;103490.19;;;1.93
76381;BMP280;65202;52.520;10.528;2023-01-24T01:56:12;103484.19;;;1.98
76381;BMP280;65202;52.520;10.528;2023-01-24T01:58:55;103481.31;;;1.88
76381;BMP280;65202;52.520;10.528;2023-01-24T02:01:26;103483.81;;;1.88
76381;BMP280;65202;52.520;10.528;2023-01-24T02:04:03;103484.91;;;1.97
76381;BMP280;65202;52.520;10.528;2023-01-24T02:07:48;103486.38;;;2.09
76381;BMP280;65202;52.520;10.528;2023-01-24T02:09:58;103488.91;;;1.90
76381;BMP280;65202;52.520;10.528;2023-01-24T02:12:38;103484.94;;;2.11
76381;BMP280;65202;52.520;10.528;2023-01-24T02:15:12;103490.25;;;2.07
76381;BMP280;65202;52.520;10.528;2023-01-24T02:18:00;103494.06;;;1.91
76381;BMP280;65202;52.520;10.528;2023-01-24T02:20:39;103489.13;;;1.91
76381;BMP280;65202;52.520;10.528;2023-01-24T02:23:17;103489.19;;;2.05
76381;BMP280;65202;52.520;10.528;2023-01-24T02:26:10;103496.41;;;2.04
76381;BMP280;65202;52.520;10.528;2023-01-24T02:28:46;103481.66;;;1.85
76381;BMP280;65202;52.520;10.528;2023-01-24T02:31:18;103488.22;;;1.91
76381;BMP280;65202;52.520;10.528;2023-01-24T02:33:45;103483.81;;;1.88
76381;BMP280;65202;52.520;10.528;2023-01-24T02:36:22;103490.22;;;2.00
76381;BMP280;65202;52.520;10.528;2023-01-24T02:39:05;103482.81;;;2.00
76381;BMP280;65202;52.520;10.528;2023-01-24T02:41:43;103489.16;;;1.98
76381;BMP280;65202;52.520;10.528;2023-01-24T02:44:19;103486.97;;;1.87
76381;BMP280;65202;52.520;10.528;2023-01-24T02:46:52;103492.72;;;2.07
76381;BMP280;65202;52.520;10.528;2023-01-24T02:49:20;103491.31;;;2.09
76381;BMP280;65202;52.520;10.528;2023-01-24T02:51:47;103491.84;;;2.07
76381;BMP280;65202;52.520;10.528;2023-01-24T02:54:32;103492.31;;;1.97
76381;BMP280;65202;52.520;10.528;2023-01-24T02:57:00;103489.50;;;2.01
76381;BMP280;65202;52.520;10.528;2023-01-24T02:59:45;103489.13;;;1.91
76381;BMP280;65202;52.520;10.528;2023-01-24T03:02:12;103493.00;;;1.89
76381;BMP280;65202;52.520;10.528;2023-01-24T03:04:39;103494.06;;;1.91
76381;BMP280;65202;52.520;10.528;2023-01-24T03:07:07;103484.19;;;1.98
76381;BMP280;65202;52.520;10.528;2023-01-24T03:09:34;103481.22;;;2.01
76381;BMP280;65202;52.520;10.528;2023-01-24T03:12:03;103479.94;;;1.97
76381;BMP280;65202;52.520;10.528;2023-01-24T03:14:50;103472.88;;;1.93
76381;BMP280;65202;52.520;10.528;2023-01-24T03:17:36;103460.69;;;1.95
76381;BMP280;65202;52.520;10.528;2023-01-24T03:20:21;103472.53;;;1.90
76381;BMP280;65202;52.520;10.528;2023-01-24T03:23:07;103468.34;;;2.03
76381;BMP280;65202;52.520;10.528;2023-01-24T03:25:57;103460.22;;;2.04
76381;BMP280;65202;52.520;10.528;2023-01-24T03:28:43;103472.88;;;1.87
76381;BMP280;65202;52.520;10.528;2023-01-24T03:31:28;103473.41;;;1.91
76381;BMP280;65202;52.520;10.528;2023-01-24T03:34:14;103473.16;;;1.83
76381;BMP280;65202;52.520;10.528;2023-01-24T03:37:00;103471.97;;;1.86
76381;BMP280;65202;52.520;10.528;2023-01-24T03:39:28;103479.25;;;1.91
76381;BMP280;65202;52.520;10.528;2023-01-24T03:42:14;103476.03;;;1.86
76381;BMP280;65202;52.520;10.528;2023-01-24T03:44:41;103483.47;;;1.92
76381;BMP280;65202;52.520;10.528;2023-01-24T03:47:08;103481.31;;;1.82
76381;BMP280;65202;52.520;10.528;2023-01-24T03:49:35;103483.28;;;1.91
76381;BMP280;65202;52.520;10.528;2023-01-24T03:52:21;103481.38;;;1.95
76381;BMP280;65202;52.520;10.528;2023-01-24T03:54:59;103489.31;;;1.93
76381;BMP280;65202;52.520;10.528;2023-01-24T03:57:28;103485.22;;;1.93
76381;BMP280;65202;52.520;10.528;2023-01-24T03:59:55;103487.72;;;1.93
76381;BMP280;65202;52.520;10.528;2023-01-24T04:02:23;103492.47;;;1.92
76381;BMP280;65202;52.520;10.528;2023-01-24T04:04:50;103491.03;;;1.87
76381;BMP280;65202;52.520;10.528;2023-01-24T04:07:35;103488.38;;;1.86
76381;BMP280;65202;52.520;10.528;2023-01-24T04:10:03;103486.09;;;1.87
76381;BMP280;65202;52.520;10.528;2023-01-24T04:12:31;103495.69;;;1.98
76381;BMP280;65202;52.520;10.528;2023-01-24T04:14:59;103494.31;;;2.07
76381;BMP280;65202;52.520;10.528;2023-01-24T04:17:26;103499.19;;;1.93
76381;BMP280;65202;52.520;10.528;2023-01-24T04:19:53;103504.41;;;1.82
76381;BMP280;65202;52.520;10.528;2023-01-24T04:22:20;103496.38;;;1.97
76381;BMP280;65202;52.520;10.528;2023-01-24T04:24:48;103495.09;;;1.87
76381;BMP280;65202;52.520;10.528;2023-01-24T04:27:15;103492.06;;;1.82
76381;BMP280;65202;52.520;10.528;2023-01-24T04:29:42;103492.13;;;1.96
76381;BMP280;65202;52.520;10.528;2023-01-24T04:32:10;103499.03;;;1.98
76381;BMP280;65202;52.520;10.528;2023-01-24T04:34:37;103489.72;;;2.03
76381;BMP280;65202;52.520;10.528;2023-01-24T04:37:04;103487.88;;;1.88
76381;BMP280;65202;52.520;10.528;2023-01-24T04:39:31;103485.94;;;1.92
76381;BMP280;65202;52.520;10.528;2023-01-24T04:41:58;103486.66;;;1.91
76381;BMP280;65202;52.520;10.528;2023-01-24T04:44:25;103485.06;;;1.99
76381;BMP280;65202;52.520;10.528;2023-01-24T04:46:52;103484.88;;;1.90
76381;BMP280;65202;52.520;10.528;2023-01-24T04:49:20;103477.75;;;1.80
76381;BMP280;65202;52.520;10.528;2023-01-24T04:51:48;103483.44;;;1.86
76381;BMP280;65202;52.520;10.528;2023-01-24T04:54:16;103484.03;;;1.97
76381;BMP280;65202;52.520;10.528;2023-01-24T04:56:46;103487.72;;;1.93
76381;BMP280;65202;52.520;10.528;2023-01-24T04:59:13;103484.84;;;1.84
76381;BMP280;65202;52.520;10.528;2023-01-24T05:01:40;103480.63;;;1.89
76381;BMP280;65202;52.520;10.528;2023-01-24T05:04:08;103478.84;;;1.88
76381;BMP280;65202;52.520;10.528;2023-01-24T05:06:35;103478.03;;;2.02
76381;BMP280;65202;52.520;10.528;2023-01-24T05:09:03;103473.34;;;1.77
76381;BMP280;65202;52.520;10.528;2023-01-24T05:11:30;103474.44;;;1.86
76381;BMP280;65202;52.520;10.528;2023-01-24T05:13:58;103479.31;;;1.72
76381;BMP280;65202;52.520;10.528;2023-01-24T05:16:25;103478.50;;;1.86
76381;BMP280;65202;52.520;10.528;2023-01-24T05:18:52;103479.59;;;1.94
76381;BMP280;65202;52.520;10.528;2023-01-24T05:21:19;103484.69;;;1.89
76381;BMP280;65202;52.520;10.528;2023-01-24T05:23:51;103483.66;;;1.94
76381;BMP280;65202;52.520;10.528;2023-01-24T05:26:20;103483.41;;;1.79
76381;BMP280;65202;52.520;10.528;2023-01-24T05:28:50;103487.47;;;1.85
76381;BMP280;65202;52.520;10.528;2023-01-24T05:31:19;103493.34;;;1.92
76381;BMP280;65202;52.520;10.528;2023-01-24T05:33:47;103488.91;;;1.83
76381;BMP280;65202;52.520;10.528;2023-01-24T05:36:17;103501.69;;;1.67
76381;BMP280;65202;52.520;10.528;2023-01-24T05:38:47;103505.22;;;1.69
76381;BMP280;65202;52.520;10.528;2023-01-24T05:41:16;103509.38;;;1.82
76381;BMP280;65202;52.520;10.528;2023-01-24T05:43:45;103511.66;;;1.81
76381;BMP280;65202;52.520;10.528;2023-01-24T05:46:16;103505.63;;;1.79
76381;BMP280;65202;52.520;10.528;2023-01-24T05:48:46;103518.50;;;1.76
76381;BMP280;65202;52.520;10.528;2023-01-24T05:51:18;103514.81;;;1.80
76381;BMP280;65202;52.520;10.528;2023-01-24T05:53:49;103519.00;;;1.74
76381;BMP280;65202;52.520;10.528;2023-01-24T05:56:18;103520.44;;;1.79
76381;BMP280;65202;52.520;10.528;2023-01-24T05:58:47;103520.50;;;1.86
76381;BMP280;65202;52.520;10.528;2023-01-24T06:01:17;103513.56;;;1.76
76381;BMP280;65202;52.520;10.528;2023-01-24T06:03:50;103514.06;;;1.74
76381;BMP280;65202;52.520;10.528;2023-01-24T06:06:21;103510.06;;;1.81
76381;BMP280;65202;52.520;10.528;2023-01-24T06:08:50;103512.13;;;2.04
76381;BMP280;65202;52.520;10.528;2023-01-24T06:11:20;103527.09;;;1.66
76381;BMP280;65202;52.520;10.528;2023-01-24T06:13:53;103513.38;;;1.75
76381;BMP280;65202;52.520;10.528;2023-01-24T06:16:24;103522.69;;;1.70
76381;BMP280;65202;52.520;10.528;2023-01-24T06:18:53;103522.50;;;1.69
76381;BMP280;65202;52.520;10.528;2023-01-24T06:24:18;103522.75;;;1.77
76381;BMP280;65202;52.520;10.528;2023-01-24T06:26:47;103530.66;;;1.75
76381;BMP280;65202;52.520;10.528;2023-01-24T06:29:17;103535.75;;;1.69
76381;BMP280;65202;52.520;10.528;2023-01-24T06:35:19;103527.63;;;1.70
76381;BMP280;65202;52.520;10.528;2023-01-24T06:37:55;103533.88;;;1.81
76381;BMP280;65202;52.520;10.528;2023-01-24T06:40:25;103546.88;;;1.73
76381;BMP280;65202;52.520;10.528;2023-01-24T06:42:52;103550.00;;;1.65
76381;BMP280;65202;52.520;10.528;2023-01-24T06:45:20;103547.22;;;1.69
76381;BMP280;65202;52.520;10.528;2023-01-24T06:47:48;103548.72;;;1.54
76381;BMP280;65202;52.520;10.528;2023-01-24T06:50:19;103557.81;;;1.48
76381;BMP280;65202;52.520;10.528;2023-01-24T06:52:48;103553.69;;;1.61
76381;BMP280;65202;52.520;10.528;2023-01-24T06:55:16;103548.94;;;1.63
76381;BMP280;65202;52.520;10.528;2023-01-24T06:57:44;103543.25;;;1.57
76381;BMP280;65202;52.520;10.528;2023-01-24T07:00:14;103556.38;;;1.63
76381;BMP280;65202;52.520;10.528;2023-01-24T07:02:41;103554.25;;;1.66
76381;BMP280;65202;52.520;10.528;2023-01-24T07:05:08;103553.50;;;1.60
76381;BMP280;65202;52.520;10.528;2023-01-24T07:07:36;103553.59;;;1.74
76381;BMP280;65202;52.520;10.528;2023-01-24T07:10:03;103550.91;;;1.65
76381;BMP280;65202;52.520;10.528;2023-01-24T07:12:30;103553.25;;;1.78
76381;BMP280;65202;52.520;10.528;2023-01-24T07:14:58;103555.00;;;1.72
76381;BMP280;65202;52.520;10.528;2023-01-24T07:17:25;103558.31;;;1.65
76381;BMP280;65202;52.520;10.528;2023-01-24T07:19:53;103567.19;;;1.51
76381;BMP280;65202;52.520;10.528;2023-01-24T07:22:20;103564.81;;;1.65
76381;BMP280;65202;52.520;10.528;2023-01-24T07:24:49;103568.50;;;1.61
76381;BMP280;65202;52.520;10.528;2023-01-24T07:27:16;103574.84;;;1.40
76381;BMP280;65202;52.520;10.528;2023-01-24T07:29:44;103568.66;;;1.56
76381;BMP280;65202;52.520;10.528;2023-01-24T07:32:12;103577.97;;;1.78
76381;BMP280;65202;52.520;10.528;2023-01-24T07:34:39;103579.91;;;1.54
76381;BMP280;65202;52.520;10.528;2023-01-24T07:37:07;103588.03;;;1.53
76381;BMP280;65202;52.520;10.528;2023-01-24T07:39:34;103585.94;;;1.56
76381;BMP280;65202;52.520;10.528;2023-01-24T07:42:01;103585.34;;;1.51
76381;BMP280;65202;52.520;10.528;2023-01-24T07:44:29;103585.09;;;1.62
76381;BMP280;65202;52.520;10.528;2023-01-24T07:46:56;103589.41;;;1.51
76381;BMP280;65202;52.520;10.528;2023-01-24T07:49:23;103591.56;;;1.55
76381;BMP280;65202;52.520;10.528;2023-01-24T07:51:51;103593.78;;;1.66
76381;BMP280;65202;52.520;10.528;2023-01-24T07:54:18;103593.78;;;1.66
76381;BMP280;65202;52.520;10.528;2023-01-24T07:56:46;103591.31;;;1.46
76381;BMP280;65202;52.520;10.528;2023-01-24T07:59:14;103594.94;;;1.55
76381;BMP280;65202;52.520;10.528;2023-01-24T08:01:42;103602.56;;;1.64
76381;BMP280;65202;52.520;10.528;2023-01-24T08:04:09;103601.44;;;1.55
76381;BMP280;65202;52.520;10.528;2023-01-24T08:06:38;103603.66;;;1.46
76381;BMP280;65202;52.520;10.528;2023-01-24T08:09:06;103599.81;;;1.68
76381;BMP280;65202;52.520;10.528;2023-01-24T08:11:33;103607.03;;;1.47
76381;BMP280;65202;52.520;10.528;2023-01-24T08:14:00;103608.03;;;1.42
76381;BMP280;65202;52.520;10.528;2023-01-24T08:16:27;103608.84;;;1.55
76381;BMP280;65202;52.520;10.528;2023-01-24T08:18:55;103611.22;;;1.60
76381;BMP280;65202;52.520;10.528;2023-01-24T08:21:22;103608.47;;;1.52
76381;BMP280;65202;52.520;10.528;2023-01-24T08:23:49;103611.53;;;1.37
76381;BMP280;65202;52.520;10.528;2023-01-24T08:26:16;103611.97;;;1.47
76381;BMP280;65202;52.520;10.528;2023-01-24T08:28:43;103613.50;;;1.39
76381;BMP280;65202;52.520;10.528;2023-01-24T08:31:10;103618.19;;;1.50
76381;BMP280;65202;52.520;10.528;2023-01-24T08:33:37;103614.13;;;1.51
76381;BMP280;65202;52.520;10.528;2023-01-24T08:36:05;103618.72;;;1.55
76381;BMP280;65202;52.520;10.528;2023-01-24T08:38:32;103624.34;;;1.54
76381;BMP280;65202;52.520;10.528;2023-01-24T08:41:04;103616.91;;;1.47
76381;BMP280;65202;52.520;10.528;2023-01-24T08:43:35;103617.84;;;1.35
76381;BMP280;65202;52.520;10.528;2023-01-24T08:46:02;103618.56;;;1.34
76381;BMP280;65202;52.520;10.528;2023-01-24T08:48:29;103608.91;;;1.42
76381;BMP280;65202;52.520;10.528;2023-01-24T08:50:57;103617.56;;;1.39
76381;BMP280;65202;52.520;10.528;2023-01-24T08:53:24;103619.81;;;1.37
76381;BMP280;65202;52.520;10.528;2023-01-24T08:55:51;103623.88;;;1.37
76381;BMP280;65202;52.520;10.528;2023-01-24T08:58:18;103619.06;;;1.31
76381;BMP280;65202;52.520;10.528;2023-01-24T09:00:47;103616.00;;;1.27
76381;BMP280;65202;52.520;10.528;2023-01-24T09:03:17;103613.31;;;1.38
76381;BMP280;65202;52.520;10.528;2023-01-24T09:05:45;103613.63;;;1.34
76381;BMP280;65202;52.520;10.528;2023-01-24T09:08:12;103609.09;;;1.24
76381;BMP280;65202;52.520;10.528;2023-01-24T09:10:39;103621.44;;;1.24
76381;BMP280;65202;52.520;10.528;2023-01-24T09:13:07;103623.09;;;1.31
76381;BMP280;65202;52.520;10.528;2023-01-24T09:15:34;103622.09;;;1.36
76381;BMP280;65202;52.520;10.528;2023-01-24T09:18:01;103619.56;;;1.29
76381;BMP280;65202;52.520;10.528;2023-01-24T09:20:29;103619.69;;;1.62
76381;BMP280;65202;52.520;10.528;2023-01-24T09:22:56;103623.78;;;1.30
76381;BMP280;65202;52.520;10.528;2023-01-24T09:25:24;103622.59;;;1.33
76381;BMP280;65202;52.520;10.528;2023-01-24T09:27:53;103628.13;;;1.38
76381;BMP280;65202;52.520;10.528;2023-01-24T09:30:22;103630.47;;;1.24
76381;BMP280;65202;52.520;10.528;2023-01-24T09:32:50;103627.16;;;1.30
76381;BMP280;65202;52.520;10.528;2023-01-24T09:35:17;103629.44;;;1.48
76381;BMP280;65202;52.520;10.528;2023-01-24T09:37:44;103634.53;;;1.43
76381;BMP280;65202;52.520;10.528;2023-01-24T09:40:21;103640.50;;;1.25
76381;BMP280;65202;52.520;10.528;2023-01-24T09:43:05;103648.06;;;1.39
76381;BMP280;65202;52.520;10.528;2023-01-24T09:46:16;103642.47;;;1.28
76381;BMP280;65202;52.520;10.528;2023-01-24T09:48:49;103639.69;;;1.32
76381;BMP280;65202;52.520;10.528;2023-01-24T09:51:32;103640.31;;;1.43
76381;BMP280;65202;52.520;10.528;2023-01-24T09:54:04;103633.22;;;1.20
76381;BMP280;65202;52.520;10.528;2023-01-24T09:56:37;103631.59;;;1.33
76381;BMP280;65202;52.520;10.528;2023-01-24T10:01:50;103622.22;;;1.30
76381;BMP280;65202;52.520;10.528;2023-01-24T10:04:21;103620.53;;;1.36
76381;BMP280;65202;52.520;10.528;2023-01-24T10:07:13;103620.63;;;1.31
76381;BMP280;65202;52.520;10.528;2023-01-24T10:10:17;103623.13;;;1.50
76381;BMP280;65202;52.520;10.528;2023-01-24T10:13:26;103624.63;;;1.43
76381;BMP280;65202;52.520;10.528;2023-01-24T10:22:23;103624.06;;;1.38
76381;BMP280;65202;52.520;10.528;2023-01-24T10:25:12;103619.41;;;1.54
76381;BMP280;65202;52.520;10.528;2023-01-24T10:27:46;103623.63;;;1.48
76381;BMP280;65202;52.520;10.528;2023-01-24T10:30:23;103630.09;;;1.40
76381;BMP280;65202;52.520;10.528;2023-01-24T10:33:15;103621.06;;;1.41
76381;BMP280;65202;52.520;10.528;2023-01-24T10:36:35;103623.56;;;1.41
76381;BMP280;65202;52.520;10.528;2023-01-24T10:38:55;103615.91;;;1.52
76381;BMP280;65202;52.520;10.528;2023-01-24T10:41:23;103617.91;;;1.42
76381;BMP280;65202;52.520;10.528;2023-01-24T10:43:57;103621.81;;;1.27
76381;BMP280;65202;52.520;10.528;2023-01-24T10:46:49;103624.88;;;1.32
76381;BMP280;65202;52.520;10.528;2023-01-24T10:49:23;103624.44;;;1.22
76381;BMP280;65202;52.520;10.528;2023-01-24T10:54:54;103617.28;;;1.30
76381;BMP280;65202;52.520;10.528;2023-01-24T10:57:32;103616.50;;;1.24
76381;BMP280;65202;52.520;10.528;2023-01-24T11:00:27;103615.00;;;1.32
76381;BMP280;65202;52.520;10.528;2023-01-24T11:03:02;103614.75;;;1.43
76381;BMP280;65202;52.520;10.528;2023-01-24T11:05:39;103607.91;;;1.28
76381;BMP280;65202;52.520;10.528;2023-01-24T11:08:17;103616.94;;;1.15
76381;BMP280;65202;52.520;10.528;2023-01-24T11:10:51;103616.25;;;1.16
76381;BMP280;65202;52.520;10.528;2023-01-24T11:13:30;103608.41;;;1.45
76381;BMP280;65202;52.520;10.528;2023-01-24T11:16:20;103600.28;;;1.39
76381;BMP280;65202;52.520;10.528;2023-01-24T11:18:52;103608.53;;;1.59
76381;BMP280;65202;52.520;10.528;2023-01-24T11:21:33;103607.84;;;1.60
76381;BMP280;65202;52.520;10.528;2023-01-24T11:24:15;103599.81;;;1.68
76381;BMP280;65202;52.520;10.528;2023-01-24T11:27:04;103594.31;;;1.70
76381;BMP280;65202;52.520;10.528;2023-01-24T11:29:41;103582.50;;;1.68
76381;BMP280;65202;52.520;10.528;2023-01-24T11:32:40;103594.63;;;1.86
76381;BMP280;65202;52.520;10.528;2023-01-24T11:35:22;103578.13;;;1.98
76381;BMP280;65202;52.520;10.528;2023-01-24T11:37:58;103577.78;;;2.02
76381;BMP280;65202;52.520;10.528;2023-01-24T11:40:43;103582.09;;;1.84
76381;BMP280;65202;52.520;10.528;2023-01-24T11:49:35;103572.22;;;1.84
76381;BMP280;65202;52.520;10.528;2023-01-24T11:53:12;103580.94;;;1.94
76381;BMP280;65202;52.520;10.528;2023-01-24T11:55:35;103562.84;;;1.82
76381;BMP280;65202;52.520;10.528;2023-01-24T11:58:28;103562.31;;;1.58
76381;BMP280;65202;52.520;10.528;2023-01-24T12:01:24;103555.84;;;1.65
76381;BMP280;65202;52.520;10.528;2023-01-24T12:11:02;103541.16;;;1.86
76381;BMP280;65202;52.520;10.528;2023-01-24T12:17:47;103532.09;;;1.80
76381;BMP280;65202;52.520;10.528;2023-01-24T12:20:44;103525.41;;;2.12
76381;BMP280;65202;52.520;10.528;2023-01-24T12:24:01;103536.97;;;1.66
76381;BMP280;65202;52.520;10.528;2023-01-24T12:26:43;103528.72;;;1.72
76381;BMP280;65202;52.520;10.528;2023-01-24T12:29:24;103525.38;;;1.72
76381;BMP280;65202;52.520;10.528;2023-01-24T12:32:22;103526.19;;;1.91
76381;BMP280;65202;52.520;10.528;2023-01-24T12:35:29;103512.34;;;1.80
76381;BMP280;65202;52.520;10.528;2023-01-24T12:38:31;103503.66;;;1.69
76381;BMP280;65202;52.520;10.528;2023-01-24T12:41:23;103501.16;;;2.02
76381;BMP280;65202;52.520;10.528;2023-01-24T12:44:08;103497.66;;;2.00
76381;BMP280;65202;52.520;10.528;2023-01-24T12:46:59;103500.34;;;1.83
76381;BMP280;65202;52.520;10.528;2023-01-24T12:49:40;103501.47;;;1.91
76381;BMP280;65202;52.520;10.528;2023-01-24T12:55:36;103502.13;;;1.84
76381;BMP280;65202;52.520;10.528;2023-01-24T12:58:21;103511.94;;;2.03
76381;BMP280;65202;52.520;10.528;2023-01-24T13:06:50;103500.13;;;2.07
76381;BMP280;65202;52.520;10.528;2023-01-24T13:12:46;103503.22;;;1.86
76381;BMP280;65202;52.520;10.528;2023-01-24T13:15:35;103502.81;;;1.83
76381;BMP280;65202;52.520;10.528;2023-01-24T13:21:29;103508.44;;;1.75
76381;BMP280;65202;52.520;10.528;2023-01-24T13:27:14;103513.13;;;1.92
76381;BMP280;65202;52.520;10.528;2023-01-24T13:30:17;103517.31;;;2.13
76381;BMP280;65202;52.520;10.528;2023-01-24T13:32:53;103515.00;;;1.81
76381;BMP280;65202;52.520;10.528;2023-01-24T13:35:25;103515.91;;;1.82
76381;BMP280;65202;52.520;10.528;2023-01-24T13:42:53;103514.88;;;1.87
76381;BMP280;65202;52.520;10.528;2023-01-24T13:47:58;103512.34;;;1.80
76381;BMP280;65202;52.520;10.528;2023-01-24T13:50:28;103519.47;;;1.90
76381;BMP280;65202;52.520;10.528;2023-01-24T13:52:57;103523.72;;;1.91
76381;BMP280;65202;52.520;10.528;2023-01-24T14:00:53;103518.03;;;1.86
76381;BMP280;65202;52.520;10.528;2023-01-24T14:03:58;103508.06;;;1.72
76381;BMP280;65202;52.520;10.528;2023-01-24T14:06:40;103512.09;;;1.71
76381;BMP280;65202;52.520;10.528;2023-01-24T14:09:18;103512.16;;;1.78
76381;BMP280;65202;52.520;10.528;2023-01-24T14:12:00;103501.28;;;1.57
76381;BMP280;65202;52.520;10.528;2023-01-24T14:14:35;103516.94;;;1.50
76381;BMP280;65202;52.520;10.528;2023-01-24T14:20:23;103514.03;;;1.40
76381;BMP280;65202;52.520;10.528;2023-01-24T14:23:04;103509.94;;;1.87
76381;BMP280;65202;52.520;10.528;2023-01-24T14:26:03;103514.31;;;1.56
76381;BMP280;65202;52.520;10.528;2023-01-24T14:28:36;103518.50;;;1.50
76381;BMP280;65202;52.520;10.528;2023-01-24T14:31:18;103513.03;;;1.52
76381;BMP280;65202;52.520;10.528;2023-01-24T14:33:57;103508.34;;;1.61
76381;BMP280;65202;52.520;10.528;2023-01-24T14:36:34;103512.00;;;1.50
76381;BMP280;65202;52.520;10.528;2023-01-24T14:39:23;103499.22;;;1.67
76381;BMP280;65202;52.520;10.528;2023-01-24T14:41:53;103497.44;;;1.66
76381;BMP280;65202;52.520;10.528;2023-01-24T14:44:27;103497.78;;;1.62
76381;BMP280;65202;52.520;10.528;2023-01-24T14:47:03;103500.13;;;2.00
76381;BMP280;65202;52.520;10.528;2023-01-24T14:49:45;103500.34;;;1.83
76381;BMP280;65202;52.520;10.528;2023-01-24T14:52:21;103490.97;;;1.80
76381;BMP280;65202;52.520;10.528;2023-01-24T14:57:32;103499.22;;;1.67
76381;BMP280;65202;52.520;10.528;2023-01-24T15:02:53;103501.22;;;1.50
76381;BMP280;65202;52.520;10.528;2023-01-24T15:05:33;103504.06;;;1.53
76381;BMP280;65202;52.520;10.528;2023-01-24T15:08:11;103506.72;;;1.54
76381;BMP280;65202;52.520;10.528;2023-01-24T15:10:42;103507.13;;;1.38
76381;BMP280;65202;52.520;10.528;2023-01-24T15:13:18;103503.34;;;1.80
76381;BMP280;65202;52.520;10.528;2023-01-24T15:15:50;103506.59;;;1.93
76381;BMP280;65202;52.520;10.528;2023-01-24T15:18:40;103506.72;;;1.54
76381;BMP280;65202;52.520;10.528;2023-01-24T15:21:17;103509.00;;;1.53
76381;BMP280;65202;52.520;10.528;2023-01-24T15:23:50;103500.75;;;1.59
76381;BMP280;65202;52.520;10.528;2023-01-24T15:28:56;103502.28;;;1.52
76381;BMP280;65202;52.520;10.528;2023-01-24T15:31:28;103503.31;;;1.47
76381;BMP280;65202;52.520;10.528;2023-01-24T15:33:59;103504.94;;;1.53
76381;BMP280;65202;52.520;10.528;2023-01-24T15:36:29;103506.84;;;1.49
76381;BMP280;65202;52.520;10.528;2023-01-24T15:38:59;103498.13;;;1.65
76381;BMP280;65202;52.520;10.528;2023-01-24T15:41:28;103512.16;;;1.52
76381;BMP280;65202;52.520;10.528;2023-01-24T15:44:21;103504.69;;;1.64
76381;BMP280;65202;52.520;10.528;2023-01-24T15:46:54;103508.16;;;1.92
76381;BMP280;65202;52.520;10.528;2023-01-24T15:50:00;103510.03;;;1.48
76381;BMP280;65202;52.520;10.528;2023-01-24T15:53:24;103502.97;;;1.77
76381;BMP280;65202;52.520;10.528;2023-01-24T15:55:57;103501.69;;;1.67
76381;BMP280;65202;52.520;10.528;2023-01-24T15:58:32;103497.03;;;1.56